sensor_id;sensor_type;location;lat;lon;timestamp;pressure;altitude;pressure_sealevel;temperature;humidity
55070;BME280;40967;52.070;8.596;2024-03-06T00:00:59;100570.28;;;5.35;100.00
55070;BME280;40967;52.070;8.596;2024-03-06T00:03:30;100575.78;;;5.40;100.00
55070;BME280;40967;52.070;8.596;2024-03-06T00:05:59;100638.25;;;5.77;100.00
55070;BME280;40967;52.070;8.596;2024-03-06T00:08:26;100653.63;;;5.88;100.00
55070;BME280;40967;52.070;8.596;2024-03-06T00:10:53;100622.13;;;5.65;100.00
55070;BME280;40967;52.070;8.596;2024-03-06T00:13:20;100663.31;;;5.89;100.00
55070;BME280;40967;52.070;8.596;2024-03-06T00:15:47;100630.31;;;5.70;100.00
55070;BME280;40967;52.070;8.596;2024-03-06T00:18:18;100715.91;;;6.15;100.00
55070;BME280;40967;52.070;8.596;2024-03-06T00:20:46;100675.50;;;5.92;100.00
55070;BME280;40967;52.070;8.596;2024-03-06T00:23:13;100676.94;;;5.94;100.00
55070;BME280;40967;52.070;8.596;2024-03-06T00:25:40;100668.94;;;5.88;100.00
55070;BME280;40967;52.070;8.596;2024-03-06T00:28:06;100688.25;;;5.96;100.00
55070;BME280;40967;52.070;8.596;2024-03-06T00:30:33;100676.09;;;5.94;100.00
55070;BME280;40967;52.070;8.596;2024-03-06T00:33:00;100730.53;;;6.19;100.00
55070;BME280;40967;52.070;8.596;2024-03-06T00:35:30;100655.25;;;5.77;100.00
55070;BME280;40967;52.070;8.596;2024-03-06T00:37:58;100706.78;;;6.04;100.00
55070;BME280;40967;52.070;8.596;2024-03-06T00:40:27;100695.31;;;5.97;100.00
55070;BME280;40967;52.070;8.596;2024-03-06T00:42:56;100694.97;;;5.94;100.00
55070;BME280;40967;52.070;8.596;2024-03-06T00:45:23;100663.66;;;5.81;100.00
55070;BME280;40967;52.070;8.596;2024-03-06T00:47:50;100622.94;;;5.54;100.00
55070;BME280;40967;52.070;8.596;2024-03-06T00:50:17;100690.16;;;5.96;100.00
55070;BME280;40967;52.070;8.596;2024-03-06T00:52:46;100696.59;;;5.95;100.00
55070;BME280;40967;52.070;8.596;2024-03-06T00:55:15;100699.88;;;5.97;100.00
55070;BME280;40967;52.070;8.596;2024-03-06T00:57:42;100740.50;;;6.18;100.00
55070;BME280;40967;52.070;8.596;2024-03-06T01:00:09;100748.81;;;6.17;100.00
55070;BME280;40967;52.070;8.596;2024-03-06T01:02:37;100701.16;;;5.94;100.00
55070;BME280;40967;52.070;8.596;2024-03-06T01:05:04;100736.63;;;6.14;100.00
55070;BME280;40967;52.070;8.596;2024-03-06T01:07:32;100739.09;;;6.16;100.00
55070;BME280;40967;52.070;8.596;2024-03-06T01:10:01;100694.00;;;5.88;100.00
55070;BME280;40967;52.070;8.596;2024-03-06T01:12:30;100736.88;;;6.13;100.00
55070;BME280;40967;52.070;8.596;2024-03-06T01:14:56;100664.59;;;5.63;100.00
55070;BME280;40967;52.070;8.596;2024-03-06T01:17:23;100745.78;;;6.13;100.00
55070;BME280;40967;52.070;8.596;2024-03-06T01:19:50;100746.47;;;6.09;100.00
55070;BME280;40967;52.070;8.596;2024-03-06T01:22:17;100698.56;;;5.76;100.00
55070;BME280;40967;52.070;8.596;2024-03-06T01:24:44;100759.00;;;6.15;100.00
55070;BME280;40967;52.070;8.596;2024-03-06T01:27:15;100726.31;;;5.88;100.00
55070;BME280;40967;52.070;8.596;2024-03-06T01:29:43;100756.75;;;6.12;100.00
55070;BME280;40967;52.070;8.596;2024-03-06T01:32:09;100716.69;;;5.80;100.00
55070;BME280;40967;52.070;8.596;2024-03-06T01:34:36;100717.31;;;5.83;100.00
55070;BME280;40967;52.070;8.596;2024-03-06T01:37:04;100719.53;;;5.86;100.00
55070;BME280;40967;52.070;8.596;2024-03-06T01:39:30;100766.75;;;6.11;100.00
55070;BME280;40967;52.070;8.596;2024-03-06T01:41:59;100736.03;;;5.89;100.00
55070;BME280;40967;52.070;8.596;2024-03-06T01:44:29;100720.59;;;5.85;100.00
55070;BME280;40967;52.070;8.596;2024-03-06T01:46:57;100702.41;;;5.68;100.00
55070;BME280;40967;52.070;8.596;2024-03-06T01:49:25;100651.13;;;5.40;100.00
55070;BME280;40967;52.070;8.596;2024-03-06T01:51:54;100724.06;;;5.73;100.00
55070;BME280;40967;52.070;8.596;2024-03-06T01:54:24;100736.97;;;5.83;100.00
55070;BME280;40967;52.070;8.596;2024-03-06T01:56:51;100668.09;;;5.41;100.00
55070;BME280;40967;52.070;8.596;2024-03-06T01:59:21;100736.16;;;5.83;100.00
55070;BME280;40967;52.070;8.596;2024-03-06T02:01:48;100767.91;;;5.92;100.00
55070;BME280;40967;52.070;8.596;2024-03-06T02:04:22;100667.13;;;5.35;100.00
55070;BME280;40967;52.070;8.596;2024-03-06T02:06:51;100787.69;;;6.09;100.00
55070;BME280;40967;52.070;8.596;2024-03-06T02:09:18;100732.84;;;5.80;100.00
55070;BME280;40967;52.070;8.596;2024-03-06T02:11:47;100760.19;;;5.96;100.00
55070;BME280;40967;52.070;8.596;2024-03-06T02:14:15;100673.59;;;5.46;100.00
55070;BME280;40967;52.070;8.596;2024-03-06T02:16:42;100785.34;;;6.13;100.00
55070;BME280;40967;52.070;8.596;2024-03-06T02:19:09;100773.63;;;6.07;100.00
55070;BME280;40967;52.070;8.596;2024-03-06T02:21:39;100748.00;;;5.93;100.00
55070;BME280;40967;52.070;8.596;2024-03-06T02:24:06;100787.81;;;6.14;100.00
55070;BME280;40967;52.070;8.596;2024-03-06T02:26:33;100799.66;;;6.13;100.00
55070;BME280;40967;52.070;8.596;2024-03-06T02:29:00;100745.16;;;5.76;100.00
55070;BME280;40967;52.070;8.596;2024-03-06T02:31:27;100753.25;;;5.88;100.00
55070;BME280;40967;52.070;8.596;2024-03-06T02:33:54;100796.97;;;6.13;100.00
55070;BME280;40967;52.070;8.596;2024-03-06T02:36:21;100736.84;;;5.78;100.00
55070;BME280;40967;52.070;8.596;2024-03-06T02:38:49;100794.81;;;6.15;100.00
55070;BME280;40967;52.070;8.596;2024-03-06T02:41:15;100753.50;;;5.87;100.00
55070;BME280;40967;52.070;8.596;2024-03-06T02:43:43;100784.28;;;6.02;100.00
55070;BME280;40967;52.070;8.596;2024-03-06T02:46:09;100692.53;;;5.39;100.00
55070;BME280;40967;52.070;8.596;2024-03-06T02:48:39;100801.53;;;6.13;100.00
55070;BME280;40967;52.070;8.596;2024-03-06T02:51:06;100751.63;;;5.87;100.00
55070;BME280;40967;52.070;8.596;2024-03-06T02:53:33;100759.34;;;5.95;100.00
55070;BME280;40967;52.070;8.596;2024-03-06T02:56:01;100800.22;;;6.15;100.00
55070;BME280;40967;52.070;8.596;2024-03-06T02:58:27;100769.41;;;6.00;100.00
55070;BME280;40967;52.070;8.596;2024-03-06T03:00:56;100797.31;;;6.17;100.00
55070;BME280;40967;52.070;8.596;2024-03-06T03:03:23;100794.38;;;6.18;100.00
55070;BME280;40967;52.070;8.596;2024-03-06T03:05:50;100766.03;;;6.04;100.00
55070;BME280;40967;52.070;8.596;2024-03-06T03:08:20;100752.19;;;5.89;100.00
55070;BME280;40967;52.070;8.596;2024-03-06T03:10:48;100804.09;;;6.19;100.00
55070;BME280;40967;52.070;8.596;2024-03-06T03:13:18;100801.41;;;6.19;100.00
55070;BME280;40967;52.070;8.596;2024-03-06T03:15:45;100785.59;;;6.11;100.00
55070;BME280;40967;52.070;8.596;2024-03-06T03:18:12;100760.25;;;5.89;100.00
55070;BME280;40967;52.070;8.596;2024-03-06T03:20:39;100758.75;;;5.93;100.00
55070;BME280;40967;52.070;8.596;2024-03-06T03:23:06;100700.63;;;5.51;100.00
55070;BME280;40967;52.070;8.596;2024-03-06T03:25:37;100811.59;;;6.17;100.00
55070;BME280;40967;52.070;8.596;2024-03-06T03:28:05;100764.63;;;5.90;100.00
55070;BME280;40967;52.070;8.596;2024-03-06T03:30:33;100728.16;;;5.64;100.00
55070;BME280;40967;52.070;8.596;2024-03-06T03:33:00;100732.34;;;5.60;100.00
55070;BME280;40967;52.070;8.596;2024-03-06T03:35:27;100775.97;;;5.92;100.00
55070;BME280;40967;52.070;8.596;2024-03-06T03:37:54;100825.88;;;6.18;100.00
55070;BME280;40967;52.070;8.596;2024-03-06T03:40:22;100764.34;;;5.80;100.00
55070;BME280;40967;52.070;8.596;2024-03-06T03:42:49;100826.47;;;6.20;100.00
55070;BME280;40967;52.070;8.596;2024-03-06T03:45:16;100834.56;;;6.20;100.00
55070;BME280;40967;52.070;8.596;2024-03-06T03:47:47;100807.47;;;6.03;100.00
55070;BME280;40967;52.070;8.596;2024-03-06T03:50:14;100833.50;;;6.21;100.00
55070;BME280;40967;52.070;8.596;2024-03-06T03:52:40;100731.16;;;5.56;100.00
55070;BME280;40967;52.070;8.596;2024-03-06T03:55:09;100798.25;;;5.99;100.00
55070;BME280;40967;52.070;8.596;2024-03-06T03:57:36;100826.94;;;6.17;100.00
55070;BME280;40967;52.070;8.596;2024-03-06T04:00:03;100725.78;;;5.56;100.00
55070;BME280;40967;52.070;8.596;2024-03-06T04:02:36;100794.72;;;5.99;100.00
55070;BME280;40967;52.070;8.596;2024-03-06T04:05:06;100730.50;;;5.61;100.00
55070;BME280;40967;52.070;8.596;2024-03-06T04:07:33;100799.28;;;5.98;100.00
55070;BME280;40967;52.070;8.596;2024-03-06T04:10:00;100845.22;;;6.26;100.00
55070;BME280;40967;52.070;8.596;2024-03-06T04:12:29;100798.47;;;5.98;100.00
55070;BME280;40967;52.070;8.596;2024-03-06T04:14:56;100720.53;;;5.50;100.00
55070;BME280;40967;52.070;8.596;2024-03-06T04:17:23;100841.44;;;6.27;100.00
55070;BME280;40967;52.070;8.596;2024-03-06T04:19:50;100795.78;;;5.98;100.00
55070;BME280;40967;52.070;8.596;2024-03-06T04:22:23;100812.50;;;6.00;100.00
55070;BME280;40967;52.070;8.596;2024-03-06T04:24:49;100806.09;;;6.01;100.00
55070;BME280;40967;52.070;8.596;2024-03-06T04:27:17;100812.84;;;6.03;100.00
55070;BME280;40967;52.070;8.596;2024-03-06T04:29:44;100797.16;;;5.89;100.00
55070;BME280;40967;52.070;8.596;2024-03-06T04:32:11;100836.78;;;6.11;100.00
55070;BME280;40967;52.070;8.596;2024-03-06T04:34:40;100858.94;;;6.25;100.00
55070;BME280;40967;52.070;8.596;2024-03-06T04:37:07;100830.44;;;6.06;100.00
55070;BME280;40967;52.070;8.596;2024-03-06T04:39:35;100861.63;;;6.25;100.00
55070;BME280;40967;52.070;8.596;2024-03-06T04:42:02;100869.22;;;6.28;100.00
55070;BME280;40967;52.070;8.596;2024-03-06T04:44:33;100759.03;;;5.62;100.00
55070;BME280;40967;52.070;8.596;2024-03-06T04:47:09;100831.28;;;6.06;100.00
55070;BME280;40967;52.070;8.596;2024-03-06T04:49:36;100776.63;;;5.64;100.00
55070;BME280;40967;52.070;8.596;2024-03-06T04:52:05;100770.28;;;5.59;100.00
55070;BME280;40967;52.070;8.596;2024-03-06T04:54:32;100881.66;;;6.29;100.00
55070;BME280;40967;52.070;8.596;2024-03-06T04:57:06;100832.66;;;5.97;100.00
55070;BME280;40967;52.070;8.596;2024-03-06T04:59:38;100885.75;;;6.31;100.00
55070;BME280;40967;52.070;8.596;2024-03-06T05:02:05;100850.47;;;6.10;100.00
55070;BME280;40967;52.070;8.596;2024-03-06T05:04:33;100820.69;;;5.93;100.00
55070;BME280;40967;52.070;8.596;2024-03-06T05:06:59;100890.44;;;6.24;100.00
55070;BME280;40967;52.070;8.596;2024-03-06T05:09:26;100823.38;;;5.93;100.00
55070;BME280;40967;52.070;8.596;2024-03-06T05:11:53;100893.84;;;6.31;100.00
55070;BME280;40967;52.070;8.596;2024-03-06T05:14:23;100901.91;;;6.31;100.00
55070;BME280;40967;52.070;8.596;2024-03-06T05:16:50;100907.31;;;6.31;100.00
55070;BME280;40967;52.070;8.596;2024-03-06T05:19:21;100905.69;;;6.30;100.00
55070;BME280;40967;52.070;8.596;2024-03-06T05:21:47;100808.31;;;5.62;100.00
55070;BME280;40967;52.070;8.596;2024-03-06T05:24:19;100906.94;;;6.28;100.00
55070;BME280;40967;52.070;8.596;2024-03-06T05:26:52;100868.16;;;6.06;100.00
55070;BME280;40967;52.070;8.596;2024-03-06T05:29:18;100870.59;;;5.96;100.00
55070;BME280;40967;52.070;8.596;2024-03-06T05:31:55;100915.28;;;6.26;100.00
55070;BME280;40967;52.070;8.596;2024-03-06T05:34:22;100921.50;;;6.27;100.00
55070;BME280;40967;52.070;8.596;2024-03-06T05:36:59;100811.13;;;5.56;100.00
55070;BME280;40967;52.070;8.596;2024-03-06T05:39:26;100817.06;;;5.58;100.00
55070;BME280;40967;52.070;8.596;2024-03-06T05:41:54;100852.38;;;5.79;100.00
55070;BME280;40967;52.070;8.596;2024-03-06T05:44:21;100913.38;;;6.15;100.00
55070;BME280;40967;52.070;8.596;2024-03-06T05:46:51;100932.50;;;6.25;100.00
55070;BME280;40967;52.070;8.596;2024-03-06T05:49:19;100831.00;;;5.55;100.00
55070;BME280;40967;52.070;8.596;2024-03-06T05:51:48;100893.53;;;5.98;100.00
55070;BME280;40967;52.070;8.596;2024-03-06T05:54:14;100897.75;;;5.94;100.00
55070;BME280;40967;52.070;8.596;2024-03-06T05:56:41;100822.66;;;5.45;100.00
55070;BME280;40967;52.070;8.596;2024-03-06T05:59:17;100819.50;;;5.48;100.00
55070;BME280;40967;52.070;8.596;2024-03-06T06:01:44;100848.31;;;5.59;100.00
55070;BME280;40967;52.070;8.596;2024-03-06T06:04:12;100902.31;;;5.94;100.00
55070;BME280;40967;52.070;8.596;2024-03-06T06:06:41;100845.75;;;5.52;100.00
55070;BME280;40967;52.070;8.596;2024-03-06T06:09:07;100924.81;;;5.99;100.00
55070;BME280;40967;52.070;8.596;2024-03-06T06:11:38;100929.63;;;5.97;100.00
55070;BME280;40967;52.070;8.596;2024-03-06T06:14:08;100978.31;;;6.25;100.00
55070;BME280;40967;52.070;8.596;2024-03-06T06:16:36;100988.03;;;6.26;100.00
55070;BME280;40967;52.070;8.596;2024-03-06T06:19:03;100918.22;;;5.84;100.00
55070;BME280;40967;52.070;8.596;2024-03-06T06:21:31;100987.19;;;6.26;100.00
55070;BME280;40967;52.070;8.596;2024-03-06T06:23:59;100943.06;;;5.97;100.00
55070;BME280;40967;52.070;8.596;2024-03-06T06:26:25;100924.53;;;5.89;100.00
55070;BME280;40967;52.070;8.596;2024-03-06T06:28:52;100995.88;;;6.28;100.00
55070;BME280;40967;52.070;8.596;2024-03-06T06:31:19;100928.88;;;5.90;100.00
55070;BME280;40967;52.070;8.596;2024-03-06T06:33:50;100942.25;;;5.97;100.00
55070;BME280;40967;52.070;8.596;2024-03-06T06:36:17;100891.16;;;5.60;100.00
55070;BME280;40967;52.070;8.596;2024-03-06T06:38:45;100979.69;;;6.16;100.00
55070;BME280;40967;52.070;8.596;2024-03-06T06:41:13;100934.50;;;5.89;100.00
55070;BME280;40967;52.070;8.596;2024-03-06T06:43:40;100887.88;;;5.58;100.00
55070;BME280;40967;52.070;8.596;2024-03-06T06:46:08;100946.44;;;5.93;100.00
55070;BME280;40967;52.070;8.596;2024-03-06T06:48:34;101014.63;;;6.34;100.00
55070;BME280;40967;52.070;8.596;2024-03-06T06:51:01;100906.97;;;5.68;100.00
55070;BME280;40967;52.070;8.596;2024-03-06T06:53:28;100916.03;;;5.74;100.00
55070;BME280;40967;52.070;8.596;2024-03-06T06:55:55;100985.91;;;6.17;100.00
55070;BME280;40967;52.070;8.596;2024-03-06T06:58:23;100914.41;;;5.73;100.00
55070;BME280;40967;52.070;8.596;2024-03-06T07:00:52;100966.63;;;6.02;100.00
55070;BME280;40967;52.070;8.596;2024-03-06T07:03:19;100999.13;;;6.18;100.00
55070;BME280;40967;52.070;8.596;2024-03-06T07:05:47;100993.16;;;6.16;100.00
55070;BME280;40967;52.070;8.596;2024-03-06T07:08:14;100986.56;;;6.12;100.00
55070;BME280;40967;52.070;8.596;2024-03-06T07:10:42;101031.53;;;6.41;100.00
55070;BME280;40967;52.070;8.596;2024-03-06T07:13:10;100935.84;;;5.79;100.00
55070;BME280;40967;52.070;8.596;2024-03-06T07:15:38;100944.31;;;5.83;100.00
55070;BME280;40967;52.070;8.596;2024-03-06T07:18:06;101053.47;;;6.45;100.00
55070;BME280;40967;52.070;8.596;2024-03-06T07:20:33;101041.03;;;6.44;100.00
55070;BME280;40967;52.070;8.596;2024-03-06T07:23:00;101022.69;;;6.23;100.00
55070;BME280;40967;52.070;8.596;2024-03-06T07:25:26;100997.56;;;6.11;100.00
55070;BME280;40967;52.070;8.596;2024-03-06T07:27:53;101015.06;;;6.20;100.00
55070;BME280;40967;52.070;8.596;2024-03-06T07:30:20;100983.25;;;5.99;100.00
55070;BME280;40967;52.070;8.596;2024-03-06T07:32:48;101066.50;;;6.48;100.00
55070;BME280;40967;52.070;8.596;2024-03-06T07:35:15;100973.16;;;5.94;100.00
55070;BME280;40967;52.070;8.596;2024-03-06T07:37:44;101064.00;;;6.46;100.00
55070;BME280;40967;52.070;8.596;2024-03-06T07:40:12;100984.88;;;6.00;100.00
55070;BME280;40967;52.070;8.596;2024-03-06T07:42:39;101085.03;;;6.56;100.00
55070;BME280;40967;52.070;8.596;2024-03-06T07:45:06;100961.66;;;5.87;100.00
55070;BME280;40967;52.070;8.596;2024-03-06T07:47:34;100962.47;;;5.88;100.00
55070;BME280;40967;52.070;8.596;2024-03-06T07:50:04;100978.09;;;5.97;100.00
55070;BME280;40967;52.070;8.596;2024-03-06T07:52:36;101045.47;;;6.38;100.00
55070;BME280;40967;52.070;8.596;2024-03-06T07:55:04;101087.63;;;6.62;100.00
55070;BME280;40967;52.070;8.596;2024-03-06T07:57:31;101106.63;;;6.67;100.00
55070;BME280;40967;52.070;8.596;2024-03-06T07:59:58;101027.25;;;6.22;100.00
55070;BME280;40967;52.070;8.596;2024-03-06T08:02:24;101095.41;;;6.70;100.00
55070;BME280;40967;52.070;8.596;2024-03-06T08:04:51;101101.84;;;6.69;100.00
55070;BME280;40967;52.070;8.596;2024-03-06T08:07:19;101067.91;;;6.50;100.00
55070;BME280;40967;52.070;8.596;2024-03-06T08:09:46;101058.13;;;6.38;100.00
55070;BME280;40967;52.070;8.596;2024-03-06T08:12:13;101069.91;;;6.55;100.00
55070;BME280;40967;52.070;8.596;2024-03-06T08:14:40;101064.25;;;6.45;100.00
55070;BME280;40967;52.070;8.596;2024-03-06T08:17:07;101108.69;;;6.83;100.00
55070;BME280;40967;52.070;8.596;2024-03-06T08:19:33;101014.59;;;6.23;100.00
55070;BME280;40967;52.070;8.596;2024-03-06T08:22:01;101088.00;;;6.66;100.00
55070;BME280;40967;52.070;8.596;2024-03-06T08:24:29;101120.41;;;6.89;100.00
55070;BME280;40967;52.070;8.596;2024-03-06T08:26:56;101104.66;;;6.74;100.00
55070;BME280;40967;52.070;8.596;2024-03-06T08:29:23;101084.47;;;6.65;100.00
55070;BME280;40967;52.070;8.596;2024-03-06T08:31:50;101131.09;;;6.96;100.00
55070;BME280;40967;52.070;8.596;2024-03-06T08:34:16;101134.63;;;6.96;100.00
55070;BME280;40967;52.070;8.596;2024-03-06T08:36:43;101092.84;;;6.75;100.00
55070;BME280;40967;52.070;8.596;2024-03-06T08:39:12;101024.13;;;6.25;100.00
55070;BME280;40967;52.070;8.596;2024-03-06T08:41:46;101135.22;;;6.98;100.00
55070;BME280;40967;52.070;8.596;2024-03-06T08:44:12;101146.50;;;7.07;100.00
55070;BME280;40967;52.070;8.596;2024-03-06T08:46:42;101060.88;;;6.49;100.00
55070;BME280;40967;52.070;8.596;2024-03-06T08:49:09;101114.19;;;6.88;100.00
55070;BME280;40967;52.070;8.596;2024-03-06T08:51:36;101115.38;;;6.93;100.00
55070;BME280;40967;52.070;8.596;2024-03-06T08:54:03;101113.28;;;6.95;100.00
55070;BME280;40967;52.070;8.596;2024-03-06T08:56:30;101052.44;;;6.57;100.00
55070;BME280;40967;52.070;8.596;2024-03-06T08:58:58;101125.25;;;6.99;100.00
55070;BME280;40967;52.070;8.596;2024-03-06T09:01:24;101117.50;;;6.90;100.00
55070;BME280;40967;52.070;8.596;2024-03-06T09:03:51;101174.13;;;7.32;100.00
55070;BME280;40967;52.070;8.596;2024-03-06T09:06:22;101124.94;;;7.07;100.00
55070;BME280;40967;52.070;8.596;2024-03-06T09:08:49;101112.22;;;6.96;100.00
55070;BME280;40967;52.070;8.596;2024-03-06T09:11:16;101073.59;;;6.72;100.00
55070;BME280;40967;52.070;8.596;2024-03-06T09:13:43;101139.72;;;7.16;100.00
55070;BME280;40967;52.070;8.596;2024-03-06T09:16:11;101128.94;;;7.16;100.00
55070;BME280;40967;52.070;8.596;2024-03-06T09:18:37;101128.78;;;7.11;100.00
55070;BME280;40967;52.070;8.596;2024-03-06T09:21:04;101186.13;;;7.47;100.00
55070;BME280;40967;52.070;8.596;2024-03-06T09:23:31;101139.63;;;7.22;100.00
55070;BME280;40967;52.070;8.596;2024-03-06T09:25:58;101085.47;;;6.82;100.00
55070;BME280;40967;52.070;8.596;2024-03-06T09:28:25;101145.25;;;7.21;100.00
55070;BME280;40967;52.070;8.596;2024-03-06T09:30:54;101138.66;;;7.17;100.00
55070;BME280;40967;52.070;8.596;2024-03-06T09:33:23;101200.09;;;7.56;100.00
55070;BME280;40967;52.070;8.596;2024-03-06T09:35:50;101161.22;;;7.34;100.00
55070;BME280;40967;52.070;8.596;2024-03-06T09:38:17;101129.50;;;7.18;100.00
55070;BME280;40967;52.070;8.596;2024-03-06T09:40:44;101172.72;;;7.41;100.00
55070;BME280;40967;52.070;8.596;2024-03-06T09:43:11;101183.53;;;7.52;100.00
55070;BME280;40967;52.070;8.596;2024-03-06T09:45:38;101175.56;;;7.46;100.00
55070;BME280;40967;52.070;8.596;2024-03-06T09:48:08;101111.19;;;7.08;100.00
55070;BME280;40967;52.070;8.596;2024-03-06T09:50:37;101189.44;;;7.61;100.00
55070;BME280;40967;52.070;8.596;2024-03-06T09:53:08;101208.22;;;7.79;100.00
55070;BME280;40967;52.070;8.596;2024-03-06T09:55:36;101164.75;;;7.46;100.00
55070;BME280;40967;52.070;8.596;2024-03-06T09:58:03;101188.59;;;7.60;100.00
55070;BME280;40967;52.070;8.596;2024-03-06T10:00:31;101232.88;;;7.82;100.00
55070;BME280;40967;52.070;8.596;2024-03-06T10:02:59;101219.75;;;7.74;100.00
55070;BME280;40967;52.070;8.596;2024-03-06T10:05:32;101229.47;;;7.75;100.00
55070;BME280;40967;52.070;8.596;2024-03-06T10:08:02;101125.03;;;7.12;100.00
55070;BME280;40967;52.070;8.596;2024-03-06T10:10:29;101160.50;;;7.27;100.00
55070;BME280;40967;52.070;8.596;2024-03-06T10:12:57;101200.56;;;7.53;100.00
55070;BME280;40967;52.070;8.596;2024-03-06T10:15:25;101152.63;;;7.25;100.00
55070;BME280;40967;52.070;8.596;2024-03-06T10:18:12;101202.78;;;7.56;100.00
55070;BME280;40967;52.070;8.596;2024-03-06T10:20:40;101167.81;;;7.38;100.00
55070;BME280;40967;52.070;8.596;2024-03-06T10:23:11;101199.06;;;7.57;100.00
55070;BME280;40967;52.070;8.596;2024-03-06T10:25:38;101252.88;;;7.81;100.00
55070;BME280;40967;52.070;8.596;2024-03-06T10:28:07;101164.50;;;7.36;100.00
55070;BME280;40967;52.070;8.596;2024-03-06T10:30:33;101138.19;;;7.20;100.00
55070;BME280;40967;52.070;8.596;2024-03-06T10:33:02;101238.06;;;7.84;100.00
55070;BME280;40967;52.070;8.596;2024-03-06T10:35:28;101135.72;;;7.18;100.00
55070;BME280;40967;52.070;8.596;2024-03-06T10:37:56;101188.13;;;7.52;100.00
55070;BME280;40967;52.070;8.596;2024-03-06T10:40:25;101211.03;;;7.61;100.00
55070;BME280;40967;52.070;8.596;2024-03-06T10:42:55;101244.66;;;7.88;100.00
55070;BME280;40967;52.070;8.596;2024-03-06T10:45:30;101245.34;;;7.83;100.00
55070;BME280;40967;52.070;8.596;2024-03-06T10:48:02;101250.41;;;7.91;100.00
55070;BME280;40967;52.070;8.596;2024-03-06T10:50:29;101244.88;;;7.86;100.00
55070;BME280;40967;52.070;8.596;2024-03-06T10:52:59;101212.78;;;7.67;100.00
55070;BME280;40967;52.070;8.596;2024-03-06T10:55:28;101263.19;;;7.96;100.00
55070;BME280;40967;52.070;8.596;2024-03-06T10:58:00;101154.44;;;7.31;100.00
55070;BME280;40967;52.070;8.596;2024-03-06T11:00:27;101215.25;;;7.68;100.00
55070;BME280;40967;52.070;8.596;2024-03-06T11:02:55;101257.56;;;7.97;100.00
55070;BME280;40967;52.070;8.596;2024-03-06T11:05:24;101208.47;;;7.66;100.00
55070;BME280;40967;52.070;8.596;2024-03-06T11:07:51;101232.28;;;7.80;100.00
55070;BME280;40967;52.070;8.596;2024-03-06T11:10:35;101242.66;;;7.95;100.00
55070;BME280;40967;52.070;8.596;2024-03-06T11:13:03;101172.25;;;7.44;100.00
55070;BME280;40967;52.070;8.596;2024-03-06T11:15:31;101270.03;;;8.10;100.00
55070;BME280;40967;52.070;8.596;2024-03-06T11:17:58;101281.78;;;8.16;100.00
55070;BME280;40967;52.070;8.596;2024-03-06T11:20:24;101213.97;;;7.82;100.00
55070;BME280;40967;52.070;8.596;2024-03-06T11:23:07;101230.31;;;7.99;100.00
55070;BME280;40967;52.070;8.596;2024-03-06T11:26:00;101250.75;;;8.18;100.00
55070;BME280;40967;52.070;8.596;2024-03-06T11:28:29;101266.66;;;8.26;100.00
55070;BME280;40967;52.070;8.596;2024-03-06T11:30:59;101274.19;;;8.36;100.00
55070;BME280;40967;52.070;8.596;2024-03-06T11:33:34;101241.81;;;8.18;100.00
55070;BME280;40967;52.070;8.596;2024-03-06T11:36:19;101239.84;;;8.13;100.00
55070;BME280;40967;52.070;8.596;2024-03-06T11:38:47;101256.72;;;8.20;100.00
55070;BME280;40967;52.070;8.596;2024-03-06T11:41:20;101284.63;;;8.44;100.00
55070;BME280;40967;52.070;8.596;2024-03-06T11:43:48;101278.88;;;8.40;100.00
55070;BME280;40967;52.070;8.596;2024-03-06T11:46:17;101225.16;;;8.09;100.00
55070;BME280;40967;52.070;8.596;2024-03-06T11:48:51;101219.97;;;8.07;100.00
55070;BME280;40967;52.070;8.596;2024-03-06T11:51:18;101300.47;;;8.52;100.00
55070;BME280;40967;52.070;8.596;2024-03-06T11:53:45;101213.03;;;8.00;100.00
55070;BME280;40967;52.070;8.596;2024-03-06T11:56:16;101189.88;;;7.92;100.00
55070;BME280;40967;52.070;8.596;2024-03-06T11:58:47;101295.75;;;8.59;100.00
55070;BME280;40967;52.070;8.596;2024-03-06T12:01:14;101270.84;;;8.45;100.00
55070;BME280;40967;52.070;8.596;2024-03-06T12:03:43;101259.44;;;8.43;100.00
55070;BME280;40967;52.070;8.596;2024-03-06T12:06:14;101231.84;;;8.30;100.00
55070;BME280;40967;52.070;8.596;2024-03-06T12:08:42;101297.06;;;8.68;100.00
55070;BME280;40967;52.070;8.596;2024-03-06T12:11:09;101303.06;;;8.70;100.00
55070;BME280;40967;52.070;8.596;2024-03-06T12:13:35;101256.75;;;8.43;100.00
55070;BME280;40967;52.070;8.596;2024-03-06T12:16:07;101291.88;;;8.66;100.00
55070;BME280;40967;52.070;8.596;2024-03-06T12:18:34;101206.00;;;8.11;100.00
55070;BME280;40967;52.070;8.596;2024-03-06T12:21:04;101241.16;;;8.34;100.00
55070;BME280;40967;52.070;8.596;2024-03-06T12:23:31;101209.28;;;8.13;100.00
55070;BME280;40967;52.070;8.596;2024-03-06T12:26:05;101283.66;;;8.61;100.00
55070;BME280;40967;52.070;8.596;2024-03-06T12:28:34;101308.66;;;8.80;100.00
55070;BME280;40967;52.070;8.596;2024-03-06T12:31:02;101299.72;;;8.79;100.00
55070;BME280;40967;52.070;8.596;2024-03-06T12:33:31;101194.34;;;8.22;100.00
55070;BME280;40967;52.070;8.596;2024-03-06T12:36:01;101261.28;;;8.66;100.00
55070;BME280;40967;52.070;8.596;2024-03-06T12:38:29;101278.81;;;8.75;100.00
55070;BME280;40967;52.070;8.596;2024-03-06T12:40:56;101311.34;;;8.91;100.00
55070;BME280;40967;52.070;8.596;2024-03-06T12:43:24;101304.28;;;8.90;100.00
55070;BME280;40967;52.070;8.596;2024-03-06T12:45:50;101237.00;;;8.54;100.00
55070;BME280;40967;52.070;8.596;2024-03-06T12:48:22;101284.06;;;8.81;100.00
55070;BME280;40967;52.070;8.596;2024-03-06T12:50:51;101261.75;;;8.74;100.00
55070;BME280;40967;52.070;8.596;2024-03-06T12:53:20;101273.00;;;8.83;100.00
55070;BME280;40967;52.070;8.596;2024-03-06T12:55:47;101270.19;;;8.89;100.00